createdAt,value
2022-08-04T00:02:08.770Z,90.20
2022-08-04T00:04:43.824Z,90.10
2022-08-04T00:07:18.057Z,90.30
2022-08-04T00:09:53.253Z,90.50
2022-08-04T00:12:29.413Z,90.60
2022-08-04T00:15:00.988Z,90.70
2022-08-04T00:17:33.289Z,90.70
2022-08-04T00:20:04.736Z,90.90
2022-08-04T00:22:36.325Z,91.00
2022-08-04T00:25:06.147Z,91.10
2022-08-04T00:27:36.342Z,91.20
2022-08-04T00:30:06.593Z,91.40
2022-08-04T00:32:35.079Z,91.30
2022-08-04T00:35:03.414Z,91.50
2022-08-04T00:37:31.740Z,91.50
2022-08-04T00:40:02.325Z,91.60
2022-08-04T00:42:58.386Z,91.80
2022-08-04T00:46:10.742Z,91.90
2022-08-04T00:48:57.491Z,92.10
2022-08-04T00:51:38.603Z,92.20
2022-08-04T00:54:13.292Z,92.20
2022-08-04T00:56:58.646Z,92.40
2022-08-04T00:59:44.614Z,92.30
2022-08-04T01:02:23.947Z,92.40
2022-08-04T01:05:03.657Z,92.60
2022-08-04T01:08:16.440Z,92.70
2022-08-04T01:10:58.920Z,92.80
2022-08-04T01:14:11.957Z,92.80
2022-08-04T01:16:49.907Z,92.90
2022-08-04T01:19:41.606Z,93.10
2022-08-04T01:22:24.127Z,93.20
2022-08-04T01:25:24.816Z,93.10
2022-08-04T01:28:13.654Z,93.50
2022-08-04T01:30:45.595Z,93.20
2022-08-04T01:33:15.495Z,93.30
2022-08-04T01:35:49.448Z,93.40
2022-08-04T01:38:25.473Z,93.50
2022-08-04T01:40:54.808Z,93.70
2022-08-04T01:43:23.376Z,93.80
2022-08-04T01:45:59.302Z,93.90
2022-08-04T01:48:28.571Z,94.00
2022-08-04T01:50:59.545Z,94.20
2022-08-04T01:53:32.845Z,94.40
2022-08-04T01:56:02.825Z,94.40
2022-08-04T01:58:33.179Z,94.50
2022-08-04T02:01:08.330Z,94.50
2022-08-04T02:04:19.786Z,94.40
2022-08-04T02:06:33.372Z,94.60
2022-08-04T02:09:12.228Z,94.80
2022-08-04T02:11:43.621Z,94.70
2022-08-04T02:14:40.056Z,94.80
2022-08-04T02:17:13.496Z,94.70
2022-08-04T02:20:09.415Z,94.90
2022-08-04T02:22:45.471Z,95.00
2022-08-04T02:25:16.209Z,95.10
2022-08-04T02:27:59.870Z,95.20
2022-08-04T02:30:34.187Z,95.40
2022-08-04T02:33:06.644Z,95.50
2022-08-04T02:35:39.391Z,95.50
2022-08-04T02:38:17.584Z,95.70
2022-08-04T02:40:58.849Z,95.80
2022-08-04T02:43:50.795Z,96.30
2022-08-04T02:46:19.679Z,96.00
2022-08-04T02:48:50.853Z,96.10
2022-08-04T02:51:23.110Z,96.20
2022-08-04T02:53:53.439Z,96.20
2022-08-04T02:56:22.585Z,96.20
2022-08-04T02:58:54.435Z,96.30
2022-08-04T03:01:24.351Z,96.40
2022-08-04T03:04:03.924Z,96.40
2022-08-04T03:07:05.144Z,96.60
2022-08-04T03:10:04.873Z,96.60
2022-08-04T03:13:15.562Z,96.60
2022-08-04T03:16:00.889Z,96.80
2022-08-04T03:19:23.645Z,96.90
2022-08-04T03:22:11.957Z,97.10
2022-08-04T03:25:10.636Z,97.10
2022-08-04T03:28:16.387Z,97.10
2022-08-04T03:31:00.462Z,97.30
2022-08-04T03:34:07.671Z,97.40
2022-08-04T03:37:12.781Z,97.60
2022-08-04T03:40:24.094Z,97.70
2022-08-04T03:43:59.263Z,97.70
2022-08-04T03:46:56.529Z,97.80
2022-08-04T03:50:14.035Z,97.90
2022-08-04T03:53:25.832Z,98.00
2022-08-04T03:56:26.599Z,98.20
2022-08-04T03:59:11.303Z,98.10
2022-08-04T04:02:06.780Z,98.20
2022-08-04T04:04:59.275Z,98.30
2022-08-04T04:08:23.643Z,98.40
2022-08-04T04:11:17.890Z,98.70
2022-08-04T04:14:00.974Z,98.80
2022-08-04T04:16:47.036Z,98.80
2022-08-04T04:19:32.245Z,98.80
2022-08-04T04:22:10.719Z,98.80
2022-08-04T04:25:01.770Z,98.80
2022-08-04T04:27:41.236Z,98.90
2022-08-04T04:30:13.507Z,99.20
2022-08-04T04:33:10.485Z,99.10
2022-08-04T04:35:50.257Z,99.20
2022-08-04T04:38:47.915Z,99.20
2022-08-04T04:41:47.849Z,99.30
2022-08-04T04:44:51.593Z,99.20
2022-08-04T04:47:43.143Z,99.30
2022-08-04T04:50:30.063Z,99.30
2022-08-04T04:53:10.558Z,99.30
2022-08-04T04:55:48.119Z,99.40
2022-08-04T04:58:21.147Z,99.50
2022-08-04T05:01:08.239Z,99.50
2022-08-04T05:04:05.870Z,99.60
2022-08-04T05:06:54.249Z,99.90
2022-08-04T05:09:37.898Z,99.80
2022-08-04T05:14:37.544Z,99.90
2022-08-04T05:15:43.714Z,99.90
2022-08-04T05:18:17.276Z,99.90
2022-08-04T05:20:49.705Z,99.90
2022-08-04T05:23:22.360Z,99.90
2022-08-04T05:25:59.842Z,99.90
2022-08-04T05:28:34.212Z,99.90
2022-08-04T05:31:07.748Z,99.90
2022-08-04T05:33:40.763Z,99.90
2022-08-04T05:36:29.414Z,99.90
2022-08-04T05:39:07.154Z,99.90
2022-08-04T05:41:45.194Z,99.90
2022-08-04T05:44:16.076Z,99.90
2022-08-04T05:46:54.235Z,99.90
2022-08-04T05:49:23.875Z,99.90
2022-08-04T05:51:53.033Z,99.90
2022-08-04T05:54:22.969Z,99.90
2022-08-04T05:56:51.855Z,99.90
2022-08-04T05:59:20.963Z,99.90
2022-08-04T06:01:55.532Z,99.90
2022-08-04T06:04:29.032Z,99.90
2022-08-04T06:06:57.029Z,99.90
2022-08-04T06:09:25.250Z,99.90
2022-08-04T06:12:03.947Z,99.90
2022-08-04T06:14:36.781Z,99.90
2022-08-04T06:18:33.262Z,99.90
2022-08-04T06:20:18.886Z,99.90
2022-08-04T06:22:50.632Z,99.90
2022-08-04T06:25:22.742Z,99.90
2022-08-04T06:27:52.056Z,99.90
2022-08-04T06:30:21.690Z,99.90
2022-08-04T06:33:03.799Z,99.90
2022-08-04T06:35:34.487Z,99.90
2022-08-04T06:38:03.817Z,99.90
2022-08-04T06:40:34.506Z,99.90
2022-08-04T06:43:03.767Z,99.90
2022-08-04T06:45:34.562Z,99.90
2022-08-04T06:48:06.107Z,99.90
2022-08-04T06:51:31.900Z,99.90
2022-08-04T06:53:26.249Z,99.90
2022-08-04T06:55:55.808Z,99.90
2022-08-04T06:58:25.883Z,99.90
2022-08-04T07:00:55.721Z,99.90
2022-08-04T07:03:25.100Z,99.90
2022-08-04T07:05:54.134Z,99.90
2022-08-04T07:08:22.724Z,99.90
2022-08-04T07:10:53.174Z,99.90
2022-08-04T07:13:23.546Z,99.90
2022-08-04T07:15:51.914Z,99.90
2022-08-04T07:18:19.988Z,99.90
2022-08-04T07:20:50.035Z,99.90
2022-08-04T07:23:23.723Z,99.90
2022-08-04T07:25:59.738Z,99.90
2022-08-04T07:28:41.603Z,99.90
2022-08-04T07:31:31.912Z,99.90
2022-08-04T07:34:20.617Z,99.90
2022-08-04T07:36:53.271Z,99.90
2022-08-04T07:39:28.516Z,99.90
2022-08-04T07:41:59.035Z,99.70
2022-08-04T07:44:27.753Z,98.80
2022-08-04T07:46:56.024Z,98.70
2022-08-04T07:49:55.293Z,98.30
2022-08-04T07:52:14.183Z,98.40
2022-08-04T07:54:43.970Z,98.10
2022-08-04T07:57:19.575Z,98.20
2022-08-04T07:59:59.976Z,97.70
2022-08-04T08:02:29.353Z,97.80
2022-08-04T08:04:57.726Z,97.10
2022-08-04T08:07:27.118Z,97.00
2022-08-04T08:09:55.302Z,96.60
2022-08-04T08:12:38.720Z,96.70
2022-08-04T08:15:13.522Z,96.50
2022-08-04T08:17:58.560Z,96.20
2022-08-04T08:20:31.791Z,96.30
2022-08-04T08:23:02.753Z,95.40
2022-08-04T08:25:32.485Z,94.40
2022-08-04T08:28:03.010Z,93.70
2022-08-04T08:30:31.604Z,93.30
2022-08-04T08:33:02.118Z,92.80
2022-08-04T08:35:49.916Z,92.20
2022-08-04T08:38:34.124Z,91.80
2022-08-04T08:41:22.492Z,90.80
2022-08-04T08:44:37.828Z,90.60
2022-08-04T08:47:16.758Z,88.30
2022-08-04T08:50:02.102Z,87.50
2022-08-04T08:53:00.685Z,87.70
2022-08-04T08:55:43.598Z,86.60
2022-08-04T08:58:38.609Z,85.70
2022-08-04T09:01:17.271Z,84.20
2022-08-04T09:04:11.410Z,82.50
2022-08-04T09:07:24.531Z,81.10
2022-08-04T09:10:08.003Z,81.50
2022-08-04T09:12:47.105Z,80.40
2022-08-04T09:15:18.261Z,78.80
2022-08-04T09:17:51.006Z,78.60
2022-08-04T09:20:31.497Z,76.60
2022-08-04T09:23:09.742Z,76.10
2022-08-04T09:25:46.488Z,75.60
2022-08-04T09:28:43.576Z,74.70
2022-08-04T09:31:23.441Z,75.20
2022-08-04T09:34:02.680Z,74.40
2022-08-04T09:36:42.394Z,73.80
2022-08-04T09:39:23.354Z,73.20
2022-08-04T09:42:02.659Z,72.40
2022-08-04T09:44:51.973Z,71.80
2022-08-04T09:47:39.608Z,71.30
2022-08-04T09:50:30.793Z,71.20
2022-08-04T09:53:12.131Z,70.90
2022-08-04T09:55:55.832Z,69.20
2022-08-04T09:58:34.426Z,69.10
2022-08-04T10:01:05.036Z,68.30
2022-08-04T10:03:37.379Z,68.10
2022-08-04T10:06:15.444Z,67.60
2022-08-04T10:09:00.776Z,66.90
2022-08-04T10:11:54.478Z,65.20
2022-08-04T10:14:41.550Z,66.40
2022-08-04T10:17:24.433Z,67.50
2022-08-04T10:20:04.237Z,66.40
2022-08-04T10:22:55.481Z,66.20
2022-08-04T10:26:03.706Z,66.50
2022-08-04T10:28:26.057Z,66.60
2022-08-04T10:31:06.500Z,65.60
2022-08-04T10:33:42.669Z,64.80
2022-08-04T10:36:18.459Z,64.10
2022-08-04T10:38:53.433Z,64.00
2022-08-04T10:41:28.629Z,62.20
2022-08-04T10:44:10.315Z,61.80
2022-08-04T10:46:46.335Z,61.40
2022-08-04T10:49:24.078Z,60.50
2022-08-04T10:52:00.454Z,61.10
2022-08-04T10:54:34.027Z,59.60
2022-08-04T10:57:07.989Z,59.10
2022-08-04T10:59:44.212Z,59.50
2022-08-04T11:02:27.313Z,59.70
2022-08-04T11:05:02.403Z,59.70
2022-08-04T11:07:38.824Z,58.90
2022-08-04T11:10:08.897Z,58.00
2022-08-04T11:12:39.509Z,57.90
2022-08-04T11:15:13.279Z,58.10
2022-08-04T11:17:44.950Z,57.70
2022-08-04T11:20:34.681Z,57.40
2022-08-04T11:23:10.122Z,57.20
2022-08-04T11:25:51.408Z,56.30
2022-08-04T11:28:30.619Z,55.80
2022-08-04T11:31:06.080Z,56.10
2022-08-04T11:33:57.913Z,55.70
2022-08-04T11:36:35.682Z,55.50
2022-08-04T11:39:11.326Z,54.00
2022-08-04T11:41:47.214Z,54.30
2022-08-04T11:44:23.823Z,54.70
2022-08-04T11:46:55.375Z,53.80
2022-08-04T11:49:30.965Z,54.00
2022-08-04T11:52:01.496Z,53.70
2022-08-04T11:54:33.102Z,53.10
2022-08-04T11:57:02.816Z,53.40
2022-08-04T11:59:32.005Z,53.50
2022-08-04T12:02:20.988Z,52.50
2022-08-04T12:04:57.624Z,52.40
2022-08-04T12:07:41.765Z,52.40
2022-08-04T12:10:40.869Z,52.20
2022-08-04T12:13:19.979Z,50.90
2022-08-04T12:16:11.598Z,50.70
2022-08-04T12:18:41.482Z,51.60
2022-08-04T12:21:19.679Z,50.70
2022-08-04T12:23:57.870Z,51.20
2022-08-04T12:26:35.626Z,49.70
2022-08-04T12:29:09.944Z,50.00
2022-08-04T12:31:45.237Z,50.10
2022-08-04T12:34:18.482Z,50.10
2022-08-04T12:36:56.975Z,50.40
2022-08-04T12:39:28.254Z,51.00
2022-08-04T12:42:04.742Z,51.40
2022-08-04T12:44:37.387Z,51.10
2022-08-04T12:47:26.916Z,50.80
2022-08-04T12:50:02.961Z,50.80
2022-08-04T12:52:59.099Z,51.30
2022-08-04T12:55:26.225Z,50.50
2022-08-04T12:57:56.505Z,50.40
2022-08-04T13:00:31.010Z,50.40
2022-08-04T13:03:10.049Z,50.00
2022-08-04T13:05:41.144Z,50.40
2022-08-04T13:08:11.121Z,50.60
2022-08-04T13:10:41.873Z,50.80
2022-08-04T13:13:17.751Z,50.70
2022-08-04T13:15:57.687Z,50.40
2022-08-04T13:18:30.364Z,50.80
2022-08-04T13:21:20.065Z,50.50
2022-08-04T13:24:10.103Z,50.70
2022-08-04T13:26:54.686Z,51.10
2022-08-04T13:29:59.902Z,51.10
2022-08-04T13:32:18.230Z,50.60
2022-08-04T13:34:49.599Z,50.40
2022-08-04T13:37:26.290Z,50.80
2022-08-04T13:39:56.526Z,50.50
2022-08-04T13:42:29.233Z,50.50
2022-08-04T13:45:01.924Z,50.70
2022-08-04T13:47:34.916Z,50.20
2022-08-04T13:50:27.337Z,50.20
2022-08-04T13:52:57.773Z,50.30
2022-08-04T13:55:29.275Z,50.10
2022-08-04T13:58:02.792Z,49.10
2022-08-04T14:00:43.809Z,49.80
2022-08-04T14:03:22.879Z,49.20
2022-08-04T14:06:14.589Z,49.20
2022-08-04T14:08:53.552Z,49.40
2022-08-04T14:12:10.103Z,49.80
2022-08-04T14:14:16.297Z,50.20
2022-08-04T14:16:59.245Z,50.60
2022-08-04T14:19:32.579Z,51.00
2022-08-04T14:22:04.554Z,51.20
2022-08-04T14:24:32.575Z,52.00
2022-08-04T14:27:01.391Z,52.20
2022-08-04T14:29:38.285Z,51.40
2022-08-04T14:32:12.736Z,52.10
2022-08-04T14:34:44.913Z,52.50
2022-08-04T14:37:19.269Z,53.00
2022-08-04T14:40:08.182Z,52.80
2022-08-04T14:42:53.965Z,52.80
2022-08-04T14:45:33.017Z,52.80
2022-08-04T14:48:04.310Z,52.90
2022-08-04T14:50:37.994Z,53.00
2022-08-04T14:53:08.344Z,53.40
2022-08-04T14:55:37.447Z,53.30
2022-08-04T14:58:35.958Z,53.20
2022-08-04T15:00:57.944Z,53.60
2022-08-04T15:03:28.611Z,53.60
2022-08-04T15:06:05.531Z,53.60
2022-08-04T15:08:36.142Z,53.80
2022-08-04T15:11:04.117Z,54.10
2022-08-04T15:13:33.328Z,53.80
2022-08-04T15:16:08.012Z,53.90
2022-08-04T15:18:38.838Z,53.90
2022-08-04T15:21:07.835Z,53.40
2022-08-04T15:23:39.206Z,53.50
2022-08-04T15:26:11.324Z,53.80
2022-08-04T15:28:42.248Z,53.40
2022-08-04T15:32:07.195Z,53.50
2022-08-04T15:34:01.084Z,53.30
2022-08-04T15:36:37.178Z,53.30
2022-08-04T15:39:12.855Z,53.50
2022-08-04T15:41:55.262Z,53.40
2022-08-04T15:45:00.037Z,53.30
2022-08-04T15:47:28.204Z,53.50
2022-08-04T15:50:11.783Z,53.50
2022-08-04T15:53:10.281Z,53.70
2022-08-04T15:55:50.175Z,53.70
2022-08-04T15:58:22.654Z,54.00
2022-08-04T16:01:16.722Z,54.10
2022-08-04T16:03:59.214Z,53.90
2022-08-04T16:06:47.763Z,54.10
2022-08-04T16:09:45.617Z,54.00
2022-08-04T16:12:54.397Z,54.00
2022-08-04T16:15:38.605Z,53.90
2022-08-04T16:18:12.268Z,54.00
2022-08-04T16:20:46.223Z,54.00
2022-08-04T16:23:59.318Z,54.20
2022-08-04T16:26:56.185Z,54.20
2022-08-04T16:29:39.317Z,54.30
2022-08-04T16:32:21.915Z,54.40
2022-08-04T16:34:56.508Z,54.70
2022-08-04T16:37:30.281Z,54.60
2022-08-04T16:40:35.399Z,54.60
2022-08-04T16:43:07.627Z,55.00
2022-08-04T16:45:50.820Z,54.70
2022-08-04T16:48:20.398Z,54.80
2022-08-04T16:50:55.505Z,54.90
2022-08-04T16:53:52.460Z,54.80
2022-08-04T16:56:15.352Z,55.10
2022-08-04T16:58:52.989Z,55.20
2022-08-04T17:01:33.073Z,55.30
2022-08-04T17:04:07.922Z,55.10
2022-08-04T17:06:38.222Z,55.00
2022-08-04T17:09:07.672Z,55.10
2022-08-04T17:11:35.722Z,55.30
2022-08-04T17:14:06.514Z,55.20
2022-08-04T17:16:36.150Z,55.60
2022-08-04T17:19:04.299Z,55.40
2022-08-04T17:21:36.248Z,55.50
2022-08-04T17:24:14.682Z,55.20
2022-08-04T17:29:43.368Z,55.40
2022-08-04T17:32:19.435Z,55.40
2022-08-04T17:34:49.273Z,55.90
2022-08-04T17:37:52.498Z,56.60
2022-08-04T17:40:12.126Z,57.30
2022-08-04T17:48:24.303Z,57.60
2022-08-04T17:50:53.467Z,57.80
2022-08-04T17:54:01.420Z,58.10
2022-08-04T17:56:51.360Z,58.70
2022-08-04T17:59:48.247Z,59.10
2022-08-04T18:02:13.098Z,59.40
2022-08-04T18:05:06.301Z,59.70
2022-08-04T18:08:41.355Z,60.00
2022-08-04T18:10:51.648Z,60.70
2022-08-04T18:13:25.188Z,61.70
2022-08-04T18:16:02.914Z,62.00
2022-08-04T18:18:33.014Z,62.50
2022-08-04T18:21:02.954Z,62.60
2022-08-04T18:23:32.734Z,63.40
2022-08-04T18:26:02.250Z,63.70
2022-08-04T18:28:33.755Z,64.50
2022-08-04T18:31:02.471Z,64.70
2022-08-04T18:33:40.677Z,64.80
2022-08-04T18:36:33.808Z,65.30
2022-08-04T18:39:13.400Z,65.60
2022-08-04T18:41:51.678Z,65.80
2022-08-04T18:44:31.521Z,65.80
2022-08-04T18:47:22.320Z,65.50
2022-08-04T18:50:58.919Z,65.50
2022-08-04T18:55:57.206Z,68.20
2022-08-04T18:58:26.990Z,68.70
2022-08-04T19:01:00.461Z,67.50
2022-08-04T19:06:18.436Z,65.70
2022-08-04T19:08:54.482Z,65.30
2022-08-04T19:11:38.125Z,65.00
2022-08-04T19:14:13.275Z,64.10
2022-08-04T19:16:45.960Z,63.60
2022-08-04T19:19:14.132Z,63.90
2022-08-04T19:22:01.084Z,64.20
2022-08-04T19:24:34.117Z,63.60
2022-08-04T19:27:06.469Z,63.80
2022-08-04T19:29:37.323Z,64.30
2022-08-04T19:32:14.816Z,64.70
2022-08-04T19:34:46.380Z,64.80
2022-08-04T19:37:57.032Z,65.30
2022-08-04T19:40:06.517Z,65.30
2022-08-04T19:42:34.717Z,66.00
2022-08-04T19:45:03.041Z,65.80
2022-08-04T19:48:17.108Z,65.60
2022-08-04T19:50:19.422Z,64.30
2022-08-04T19:52:52.083Z,65.40
2022-08-04T19:55:22.602Z,64.70
2022-08-04T19:57:51.292Z,64.90
2022-08-04T20:00:34.053Z,65.40
2022-08-04T20:03:02.918Z,65.30
2022-08-04T20:05:52.824Z,66.00
2022-08-04T20:08:21.318Z,66.20
2022-08-04T20:10:51.579Z,66.40
2022-08-04T20:13:20.315Z,67.20
2022-08-04T20:15:57.309Z,67.00
2022-08-04T20:18:35.959Z,67.20
2022-08-04T20:21:18.960Z,68.10
2022-08-04T20:23:53.562Z,67.60
2022-08-04T20:26:21.747Z,67.20
2022-08-04T20:28:51.814Z,67.40
2022-08-04T20:31:20.461Z,67.30
2022-08-04T20:33:54.833Z,67.70
2022-08-04T20:36:23.756Z,68.00
2022-08-04T20:38:54.605Z,68.40
2022-08-04T20:41:23.282Z,69.00
2022-08-04T20:43:51.682Z,69.30
2022-08-04T20:46:28.541Z,70.30
2022-08-04T20:48:57.722Z,69.70
2022-08-04T20:51:32.266Z,69.80
2022-08-04T20:54:16.980Z,69.80
2022-08-04T20:56:51.500Z,69.90
2022-08-04T20:59:19.907Z,70.10
2022-08-04T21:01:49.577Z,70.30
2022-08-04T21:04:35.772Z,70.90
2022-08-04T21:07:05.913Z,71.50
2022-08-04T21:09:38.032Z,72.10
2022-08-04T21:12:26.934Z,72.50
2022-08-04T21:14:57.806Z,72.80
2022-08-04T21:17:58.649Z,73.20
2022-08-04T21:20:14.403Z,74.20
2022-08-04T21:22:55.466Z,74.10
2022-08-04T21:25:29.029Z,74.60
2022-08-04T21:27:58.852Z,74.80
2022-08-04T21:30:54.277Z,75.00
2022-08-04T21:33:49.022Z,75.10
2022-08-04T21:36:14.221Z,75.30
2022-08-04T21:38:51.420Z,75.50
2022-08-04T21:41:24.942Z,75.90
2022-08-04T21:43:55.587Z,76.30
2022-08-04T21:46:23.654Z,76.40
2022-08-04T21:48:52.070Z,76.50
2022-08-04T21:51:57.025Z,77.00
2022-08-04T21:54:14.908Z,77.70
2022-08-04T21:56:49.233Z,77.40
2022-08-04T21:59:23.825Z,77.60
2022-08-04T22:02:00.393Z,77.80
2022-08-04T22:04:29.033Z,78.40
2022-08-04T22:06:57.009Z,78.20
2022-08-04T22:09:25.002Z,78.60
2022-08-04T22:11:58.217Z,78.90
2022-08-04T22:14:34.407Z,78.90
2022-08-04T22:17:03.951Z,79.30
2022-08-04T22:19:40.791Z,79.80
2022-08-04T22:28:03.488Z,80.20
2022-08-04T22:30:37.102Z,80.30
2022-08-04T22:33:08.240Z,80.60
2022-08-04T22:35:43.787Z,80.80
2022-08-04T22:38:24.164Z,81.00
2022-08-04T22:41:07.988Z,81.10
2022-08-04T22:43:38.015Z,81.30
2022-08-04T22:46:08.187Z,81.60
2022-08-04T22:48:38.605Z,82.10
2022-08-04T22:51:08.383Z,82.10
2022-08-04T22:53:37.118Z,82.70
2022-08-04T22:56:09.351Z,82.60
2022-08-04T22:58:45.246Z,82.60
2022-08-04T23:01:18.575Z,82.70
2022-08-04T23:03:55.327Z,83.00
2022-08-04T23:06:28.288Z,83.40
2022-08-04T23:08:56.914Z,83.70
2022-08-04T23:11:34.661Z,83.90
2022-08-04T23:14:05.114Z,84.00
2022-08-04T23:16:33.272Z,84.40
2022-08-04T23:19:09.827Z,84.60
2022-08-04T23:21:41.012Z,84.60
2022-08-04T23:24:09.573Z,84.70
2022-08-04T23:26:37.612Z,85.00
2022-08-04T23:29:10.920Z,85.30
2022-08-04T23:31:40.934Z,85.40
2022-08-04T23:34:12.174Z,85.70
2022-08-04T23:36:40.791Z,85.90
2022-08-04T23:39:10.657Z,86.00
2022-08-04T23:41:54.616Z,86.00
2022-08-04T23:44:27.292Z,86.10
2022-08-04T23:47:03.560Z,86.30
2022-08-04T23:49:44.271Z,86.60
2022-08-04T23:52:23.271Z,86.90
2022-08-04T23:54:58.894Z,87.00
2022-08-04T23:57:31.165Z,87.10
